createdAt,value
2023-02-16T00:01:38.157Z,-2
2023-02-16T00:03:39.615Z,-1.94
2023-02-16T00:05:41.020Z,-1.91
2023-02-16T00:07:42.896Z,-1.95
2023-02-16T00:09:44.872Z,-1.96
2023-02-16T00:11:46.693Z,-1.92
2023-02-16T00:13:47.885Z,-1.97
2023-02-16T00:15:48.974Z,-1.92
2023-02-16T00:17:50.034Z,-1.91
2023-02-16T00:19:51.925Z,-1.86
2023-02-16T00:21:53.795Z,-1.86
2023-02-16T00:23:55.559Z,-1.9
2023-02-16T00:25:57.513Z,-1.95
2023-02-16T00:27:58.766Z,-1.98
2023-02-16T00:30:00.609Z,-1.97
2023-02-16T00:32:02.216Z,-2
2023-02-16T00:34:03.396Z,-2.04
2023-02-16T00:36:05.191Z,-2.1
2023-02-16T00:38:06.716Z,-2.1
2023-02-16T00:40:08.527Z,-2.11
2023-02-16T00:42:09.794Z,-2.09
2023-02-16T00:44:11.383Z,-2.08
2023-02-16T00:46:12.712Z,-2.08
2023-02-16T00:48:14.187Z,-2.12
2023-02-16T00:50:15.869Z,-2.1
2023-02-16T00:52:17.925Z,-2.09
2023-02-16T00:54:19.185Z,-2.02
2023-02-16T00:56:21.130Z,-2.04
2023-02-16T00:58:22.576Z,-2.09
2023-02-16T01:00:24.271Z,-2.08
2023-02-16T01:02:25.831Z,-2.17
2023-02-16T01:03:09.792Z,-2.17
2023-02-16T01:05:11.356Z,-2.12
2023-02-16T01:07:12.892Z,-2.17
2023-02-16T01:09:14.801Z,-2.2
2023-02-16T01:11:16.536Z,-2.17
2023-02-16T01:13:17.669Z,-2.21
2023-02-16T01:15:27.519Z,-2.24
2023-02-16T01:17:20.817Z,-2.25
2023-02-16T01:19:21.953Z,-2.16
2023-02-16T01:21:23.928Z,-2.2
2023-02-16T01:23:25.276Z,-2.24
2023-02-16T01:25:27.019Z,-2.22
2023-02-16T01:27:28.489Z,-2.18
2023-02-16T01:29:29.990Z,-2.16
2023-02-16T01:31:31.582Z,-2.23
2023-02-16T01:33:33.304Z,-2.28
2023-02-16T01:35:35.024Z,-2.21
2023-02-16T01:37:36.354Z,-2.25
2023-02-16T01:39:38.143Z,-2.22
2023-02-16T01:41:39.619Z,-2.29
2023-02-16T01:43:41.488Z,-2.28
2023-02-16T01:45:42.839Z,-2.4
2023-02-16T01:47:44.542Z,-2.4
2023-02-16T01:51:48.182Z,-2.41
2023-02-16T01:53:49.722Z,-2.41
2023-02-16T01:55:51.363Z,-2.43
2023-02-16T01:57:52.636Z,-2.45
2023-02-16T01:59:54.021Z,-2.44
2023-02-16T02:01:55.588Z,-2.41
2023-02-16T02:03:57.371Z,-2.42
2023-02-16T02:05:59.027Z,-2.43
2023-02-16T02:08:00.968Z,-2.46
2023-02-16T02:10:02.958Z,-2.47
2023-02-16T02:12:04.087Z,-2.45
2023-02-16T02:14:05.417Z,-2.41
2023-02-16T02:16:06.544Z,-2.38
2023-02-16T02:18:07.839Z,-2.37
2023-02-16T02:20:08.994Z,-2.4
2023-02-16T02:22:10.446Z,-2.39
2023-02-16T02:24:11.749Z,-2.38
2023-02-16T02:26:13.591Z,-2.39
2023-02-16T02:28:14.661Z,-2.39
2023-02-16T02:30:16.483Z,-2.38
2023-02-16T02:34:20.094Z,-2.45
2023-02-16T02:36:21.322Z,-2.46
2023-02-16T02:38:23.373Z,-2.47
2023-02-16T02:40:24.958Z,-2.49
2023-02-16T02:42:26.143Z,-2.51
2023-02-16T02:44:27.313Z,-2.5
2023-02-16T02:46:29.145Z,-2.53
2023-02-16T02:48:30.993Z,-2.57
2023-02-16T02:50:32.180Z,-2.64
2023-02-16T02:52:33.697Z,-2.64
2023-02-16T02:54:35.527Z,-2.59
2023-02-16T02:56:36.639Z,-2.62
2023-02-16T02:58:38.076Z,-2.68
2023-02-16T03:00:39.353Z,-2.69
2023-02-16T03:02:40.472Z,-2.66
2023-02-16T03:04:41.924Z,-2.68
2023-02-16T03:06:44.027Z,-2.7
2023-02-16T03:08:45.890Z,-2.75
2023-02-16T03:10:46.947Z,-2.82
2023-02-16T03:12:48.055Z,-2.81
2023-02-16T03:14:50.078Z,-2.8
2023-02-16T03:16:51.369Z,-2.8
2023-02-16T03:18:52.851Z,-2.76
2023-02-16T03:20:53.956Z,-2.77
2023-02-16T03:22:55.678Z,-2.8
2023-02-16T03:24:57.278Z,-2.78
2023-02-16T03:26:58.362Z,-2.8
2023-02-16T03:29:00.241Z,-2.81
2023-02-16T03:31:02.509Z,-2.84
2023-02-16T03:33:03.931Z,-2.83
2023-02-16T03:35:05.758Z,-2.88
2023-02-16T03:37:06.992Z,-2.9
2023-02-16T03:39:08.419Z,-2.85
2023-02-16T03:41:10.468Z,-2.85
2023-02-16T03:43:12.173Z,-2.88
2023-02-16T03:45:13.617Z,-2.89
2023-02-16T03:47:15.169Z,-2.88
2023-02-16T03:49:16.933Z,-2.89
2023-02-16T03:51:18.958Z,-2.93
2023-02-16T03:53:20.659Z,-2.89
2023-02-16T03:55:22.018Z,-2.9
2023-02-16T03:57:24.081Z,-2.94
2023-02-16T03:59:25.242Z,-2.94
2023-02-16T04:01:26.446Z,-2.94
2023-02-16T04:03:27.784Z,-2.9
2023-02-16T04:05:29.473Z,-2.93
2023-02-16T04:07:31.872Z,-2.92
2023-02-16T04:09:32.904Z,-2.93
2023-02-16T04:11:34.953Z,-2.92
2023-02-16T04:13:36.642Z,-2.88
2023-02-16T04:15:38.681Z,-2.95
2023-02-16T04:19:41.918Z,-2.96
2023-02-16T04:21:43.841Z,-2.94
2023-02-16T04:23:44.961Z,-2.98
2023-02-16T04:25:46.431Z,-2.99
2023-02-16T04:27:48.506Z,-2.97
2023-02-16T04:31:52.022Z,-2.96
2023-02-16T04:33:53.276Z,-2.97
2023-02-16T04:35:54.746Z,-3.03
2023-02-16T04:37:56.756Z,-3.09
2023-02-16T04:39:58.784Z,-3.13
2023-02-16T04:41:59.919Z,-3.11
2023-02-16T04:44:01.262Z,-3.08
2023-02-16T04:46:02.519Z,-3.04
2023-02-16T04:48:04.434Z,-3.11
2023-02-16T04:50:06.466Z,-3.07
2023-02-16T04:52:07.821Z,-3.04
2023-02-16T04:54:09.422Z,-3.07
2023-02-16T04:56:11.480Z,-3.09
2023-02-16T04:58:13.357Z,-3.14
2023-02-16T05:00:15.051Z,-3.15
2023-02-16T05:02:17.145Z,-3.12
2023-02-16T05:04:18.385Z,-3.14
2023-02-16T05:06:19.520Z,-3.17
2023-02-16T05:08:21.488Z,-3.24
2023-02-16T05:10:22.774Z,-3.23
2023-02-16T05:14:25.893Z,-3.27
2023-02-16T05:16:27.050Z,-3.27
2023-02-16T05:18:28.854Z,-3.32
2023-02-16T05:20:30.783Z,-3.36
2023-02-16T05:22:32.695Z,-3.34
2023-02-16T05:24:34.591Z,-3.38
2023-02-16T05:26:36.200Z,-3.41
2023-02-16T05:28:37.791Z,-3.44
2023-02-16T05:30:38.940Z,-3.49
2023-02-16T05:32:40.768Z,-3.52
2023-02-16T05:34:42.032Z,-3.55
2023-02-16T05:36:43.952Z,-3.6
2023-02-16T05:38:45.270Z,-3.58
2023-02-16T05:40:46.660Z,-3.58
2023-02-16T05:42:47.845Z,-3.63
2023-02-16T05:44:49.587Z,-3.52
2023-02-16T05:46:50.756Z,-3.42
2023-02-16T05:48:52.705Z,-3.45
2023-02-16T05:50:54.299Z,-3.48
2023-02-16T05:52:56.104Z,-3.45
2023-02-16T05:57:00.024Z,-3.54
2023-02-16T05:59:02.075Z,-3.54
2023-02-16T06:01:03.841Z,-3.53
2023-02-16T06:03:05.630Z,-3.6
2023-02-16T06:05:07.176Z,-3.58
2023-02-16T06:07:08.954Z,-3.61
2023-02-16T06:09:10.175Z,-3.63
2023-02-16T06:11:11.294Z,-3.67
2023-02-16T06:13:13.352Z,-3.67
2023-02-16T06:15:14.964Z,-3.69
2023-02-16T06:17:16.176Z,-3.7
2023-02-16T06:19:17.390Z,-3.7
2023-02-16T06:21:18.908Z,-3.7
2023-02-16T06:23:20.191Z,-3.71
2023-02-16T06:25:21.638Z,-3.76
2023-02-16T06:27:23.127Z,-3.79
2023-02-16T06:29:24.334Z,-3.79
2023-02-16T06:31:26.351Z,-3.89
2023-02-16T06:33:28.088Z,-3.9
2023-02-16T06:35:29.585Z,-3.97
2023-02-16T06:39:33.049Z,-4.09
2023-02-16T06:41:34.537Z,-4.08
2023-02-16T06:43:36.081Z,-4.13
2023-02-16T06:45:38.082Z,-4.17
2023-02-16T06:47:39.321Z,-4.22
2023-02-16T06:49:41.073Z,-4.2
2023-02-16T06:51:42.452Z,-4.2
2023-02-16T06:53:43.750Z,-4.17
2023-02-16T06:55:45.806Z,-4.15
2023-02-16T06:57:47.732Z,-4.1
2023-02-16T06:59:49.675Z,-4.03
2023-02-16T07:01:51.277Z,-3.99
2023-02-16T07:03:53.075Z,-3.99
2023-02-16T07:05:54.740Z,-3.93
2023-02-16T07:07:56.507Z,-3.92
2023-02-16T07:09:57.942Z,-3.94
2023-02-16T07:11:59.373Z,-3.95
2023-02-16T07:14:01.449Z,-3.96
2023-02-16T07:16:03.407Z,-3.93
2023-02-16T07:18:04.762Z,-3.89
2023-02-16T07:22:07.241Z,-3.84
2023-02-16T07:24:08.580Z,-3.79
2023-02-16T07:26:10.183Z,-3.72
2023-02-16T07:28:11.627Z,-3.59
2023-02-16T07:30:13.468Z,-3.46
2023-02-16T07:32:15.415Z,-3.19
2023-02-16T07:34:17.434Z,-2.83
2023-02-16T07:36:19.396Z,-2.63
2023-02-16T07:38:20.893Z,-2.37
2023-02-16T07:40:22.775Z,-1.95
2023-02-16T07:42:24.700Z,-1.73
2023-02-16T07:44:26.347Z,-2.29
2023-02-16T07:46:27.771Z,-2.91
2023-02-16T07:48:29.169Z,-2.89
2023-02-16T07:49:13.104Z,-2.75
2023-02-16T07:51:14.333Z,-2.35
2023-02-16T07:53:16.116Z,-2.44
2023-02-16T07:55:17.258Z,-2.14
2023-02-16T07:57:18.970Z,-1.85
2023-02-16T07:59:20.491Z,-1.64
2023-02-16T08:01:21.835Z,-1.8
2023-02-16T08:03:23.705Z,-1.93
2023-02-16T08:05:24.763Z,-1.57
2023-02-16T08:07:26.370Z,-1.33
2023-02-16T08:09:27.725Z,-1.82
2023-02-16T08:11:28.759Z,-1.42
2023-02-16T08:13:30.927Z,-1.07
2023-02-16T08:15:32.136Z,-1.21
2023-02-16T08:17:33.153Z,-1.02
2023-02-16T08:19:34.697Z,-0.95
2023-02-16T08:21:37.260Z,-0.8
2023-02-16T08:23:38.313Z,-0.53
2023-02-16T08:25:40.227Z,-0.84
2023-02-16T08:27:41.731Z,-1.13
2023-02-16T08:29:43.133Z,-0.75
2023-02-16T08:31:44.284Z,-0.63
2023-02-16T08:33:45.757Z,-0.8
2023-02-16T08:35:47.044Z,-1.51
2023-02-16T08:37:48.234Z,-1.84
2023-02-16T08:39:49.648Z,-2.07
2023-02-16T08:41:51.424Z,-2.08
2023-02-16T08:43:53.301Z,-2.09
2023-02-16T08:45:54.834Z,-2.07
2023-02-16T08:47:57.168Z,-1.85
2023-02-16T08:49:58.358Z,-1.67
2023-02-16T08:51:59.562Z,-1.48
2023-02-16T08:54:01.232Z,-1.16
2023-02-16T08:56:02.705Z,-1.17
2023-02-16T08:58:04.142Z,-0.75
2023-02-16T09:00:05.173Z,-0.5
2023-02-16T09:02:15.395Z,-0.15
2023-02-16T09:04:08.143Z,-0.09
2023-02-16T09:06:09.694Z,-0.1
2023-02-16T09:08:10.750Z,-0.55
2023-02-16T09:10:12.628Z,-0.79
2023-02-16T09:12:13.579Z,-0.76
2023-02-16T09:14:15.385Z,-0.74
2023-02-16T09:16:16.987Z,-0.2
2023-02-16T09:18:18.193Z,-0.13
2023-02-16T09:20:19.206Z,-0.35
2023-02-16T09:22:20.631Z,-0.27
2023-02-16T09:24:22.051Z,-0.04
2023-02-16T09:26:22.988Z,0.14
2023-02-16T09:28:24.248Z,0.78
2023-02-16T09:30:25.559Z,1.29
2023-02-16T09:32:27.144Z,1.77
2023-02-16T09:34:28.195Z,2.28
2023-02-16T09:36:29.548Z,2.36
2023-02-16T09:40:33.466Z,3.09
2023-02-16T09:42:35.570Z,3.55
2023-02-16T09:44:37.160Z,3.79
2023-02-16T09:46:38.375Z,4.25
2023-02-16T09:48:40.049Z,4.54
2023-02-16T09:50:53.659Z,4.46
2023-02-16T09:52:42.812Z,4.94
2023-02-16T09:54:44.581Z,5.33
2023-02-16T09:56:46.195Z,5.81
2023-02-16T09:58:47.639Z,5.62
2023-02-16T10:00:48.721Z,5.88
2023-02-16T10:02:50.498Z,6.04
2023-02-16T10:04:52.137Z,6.25
2023-02-16T10:06:53.459Z,6.66
2023-02-16T10:08:54.649Z,7.18
2023-02-16T10:10:55.918Z,7.44
2023-02-16T10:12:56.966Z,7.59
2023-02-16T10:14:57.961Z,7.35
2023-02-16T10:16:59.588Z,7.7
2023-02-16T10:19:01.011Z,7.67
2023-02-16T10:21:02.134Z,7.41
2023-02-16T10:23:03.619Z,7.85
2023-02-16T10:25:05.383Z,8.37
2023-02-16T10:27:06.800Z,8.09
2023-02-16T10:29:07.988Z,8.26
2023-02-16T10:31:09.607Z,8.87
2023-02-16T10:33:10.887Z,8.88
2023-02-16T10:35:12.602Z,9.05
2023-02-16T10:37:13.647Z,8.92
2023-02-16T10:39:15.167Z,8.83
2023-02-16T10:41:16.067Z,8.97
2023-02-16T10:43:17.465Z,8.76
2023-02-16T10:45:18.749Z,8.84
2023-02-16T10:47:19.718Z,8.95
2023-02-16T10:49:20.888Z,8.28
2023-02-16T10:51:22.933Z,8.56
2023-02-16T10:53:23.393Z,8.84
2023-02-16T10:55:24.942Z,8.88
2023-02-16T10:57:26.149Z,8.82
2023-02-16T10:59:27.963Z,9.11
2023-02-16T11:01:29.807Z,9.11
2023-02-16T11:03:31.440Z,9.55
2023-02-16T11:05:32.954Z,9.29
2023-02-16T11:07:35.441Z,9.32
2023-02-16T11:09:36.437Z,9.55
2023-02-16T11:11:37.695Z,9.37
2023-02-16T11:13:39.328Z,9.37
2023-02-16T11:15:40.766Z,9.35
2023-02-16T11:17:42.175Z,9.25
2023-02-16T11:19:43.589Z,9.52
2023-02-16T11:21:45.276Z,9.92
2023-02-16T11:23:46.785Z,9.99
2023-02-16T11:25:47.975Z,9.8
2023-02-16T11:27:49.617Z,9.77
2023-02-16T11:29:51.043Z,9.9
2023-02-16T11:31:52.691Z,10.26
2023-02-16T11:33:53.935Z,10.31
2023-02-16T11:35:55.092Z,10.16
2023-02-16T11:37:56.739Z,10.4
2023-02-16T11:39:57.975Z,10.64
2023-02-16T11:41:58.984Z,10.58
2023-02-16T11:43:59.896Z,10.42
2023-02-16T11:46:01.547Z,10.28
2023-02-16T11:48:03.041Z,10.65
2023-02-16T11:50:04.707Z,10.57
2023-02-16T11:52:05.671Z,10.75
2023-02-16T11:54:06.826Z,10.48
2023-02-16T11:56:08.633Z,10.82
2023-02-16T11:58:10.427Z,10.91
2023-02-16T12:00:11.711Z,10.73
2023-02-16T12:02:12.785Z,10.73
2023-02-16T12:04:14.622Z,10.57
2023-02-16T12:06:16.046Z,10.47
2023-02-16T12:08:16.966Z,10.54
2023-02-16T12:10:18.156Z,10.59
2023-02-16T12:12:19.529Z,10.79
2023-02-16T12:14:21.134Z,10.69
2023-02-16T12:16:22.420Z,10.74
2023-02-16T12:18:23.771Z,10.81
2023-02-16T12:20:24.985Z,11.05
2023-02-16T12:22:26.486Z,10.79
2023-02-16T12:24:27.961Z,11.05
2023-02-16T12:26:29.370Z,11
2023-02-16T12:28:30.900Z,10.76
2023-02-16T12:30:32.867Z,11.05
2023-02-16T12:32:34.010Z,11.34
2023-02-16T12:34:35.556Z,11.44
2023-02-16T12:36:36.693Z,11.6
2023-02-16T12:38:37.890Z,11.49
2023-02-16T12:40:38.784Z,11.82
2023-02-16T12:42:41.331Z,11.41
2023-02-16T12:44:42.866Z,11.35
2023-02-16T12:46:43.731Z,11.7
2023-02-16T12:48:44.878Z,11.52
2023-02-16T12:50:46.113Z,11.24
2023-02-16T12:52:47.637Z,10.82
2023-02-16T12:54:48.700Z,10.87
2023-02-16T12:56:50.356Z,10.99
2023-02-16T12:58:52.222Z,11.03
2023-02-16T13:00:53.317Z,11.24
2023-02-16T13:02:55.084Z,11.24
2023-02-16T13:04:56.122Z,11.22
2023-02-16T13:06:57.498Z,11.21
2023-02-16T13:08:59.247Z,11.34
2023-02-16T13:11:01.169Z,11.69
2023-02-16T13:13:02.046Z,12
2023-02-16T13:15:03.576Z,11.89
2023-02-16T13:17:04.809Z,11.72
2023-02-16T13:19:06.911Z,11.68
2023-02-16T13:21:08.423Z,11.47
2023-02-16T13:23:09.359Z,11.47
2023-02-16T13:25:10.565Z,11.13
2023-02-16T13:27:11.787Z,11.08
2023-02-16T13:29:13.395Z,11.3
2023-02-16T13:31:14.238Z,11.31
2023-02-16T13:33:16.006Z,11.25
2023-02-16T13:35:17.378Z,11.31
2023-02-16T13:37:18.746Z,11.34
2023-02-16T13:39:19.686Z,11.31
2023-02-16T13:41:22.252Z,11.41
2023-02-16T13:43:24.009Z,11.53
2023-02-16T13:45:25.909Z,11.57
2023-02-16T13:47:27.479Z,11.37
2023-02-16T13:49:28.980Z,11.45
2023-02-16T13:51:30.726Z,11.32
2023-02-16T13:53:31.972Z,11.33
2023-02-16T13:55:33.223Z,11.29
2023-02-16T13:57:35.090Z,11.41
2023-02-16T13:59:36.350Z,11.48
2023-02-16T14:01:37.773Z,11.64
2023-02-16T14:03:38.881Z,11.8
2023-02-16T14:05:39.985Z,11.82
2023-02-16T14:07:41.669Z,11.74
2023-02-16T14:09:44.025Z,11.66
2023-02-16T14:11:45.614Z,11.71
2023-02-16T14:13:47.381Z,11.57
2023-02-16T14:15:48.857Z,11.42
2023-02-16T14:17:49.913Z,11.52
2023-02-16T14:19:51.149Z,11.51
2023-02-16T14:21:52.675Z,11.52
2023-02-16T14:23:54.410Z,11.52
2023-02-16T14:25:56.009Z,11.29
2023-02-16T14:27:57.691Z,11.1
2023-02-16T14:29:59.588Z,11.13
2023-02-16T14:32:00.502Z,11.02
2023-02-16T14:34:02.095Z,10.99
2023-02-16T14:36:46.775Z,11.03
2023-02-16T14:38:47.768Z,10.99
2023-02-16T14:40:48.997Z,10.99
2023-02-16T14:42:49.979Z,10.89
2023-02-16T14:44:51.706Z,10.91
2023-02-16T14:46:52.948Z,10.88
2023-02-16T14:48:54.374Z,10.85
2023-02-16T14:50:55.521Z,10.82
2023-02-16T14:52:57.374Z,10.83
2023-02-16T14:54:58.321Z,10.84
2023-02-16T14:56:59.710Z,10.89
2023-02-16T14:59:01.493Z,10.95
2023-02-16T15:01:03.164Z,10.94
2023-02-16T15:03:04.925Z,10.86
2023-02-16T15:05:06.824Z,10.87
2023-02-16T15:07:08.668Z,10.84
2023-02-16T15:09:10.166Z,10.82
2023-02-16T15:11:11.738Z,10.83
2023-02-16T15:13:14.620Z,10.82
2023-02-16T15:15:14.697Z,10.81
2023-02-16T15:17:15.607Z,10.8
2023-02-16T15:19:16.987Z,10.8
2023-02-16T15:21:18.333Z,10.78
2023-02-16T15:23:19.838Z,10.75
2023-02-16T15:25:21.555Z,10.74
2023-02-16T15:27:22.992Z,10.73
2023-02-16T15:29:24.295Z,10.69
2023-02-16T15:31:25.598Z,10.63
2023-02-16T15:33:26.924Z,10.54
2023-02-16T15:35:29.448Z,10.55
2023-02-16T15:37:30.209Z,10.53
2023-02-16T15:39:42.956Z,10.54
2023-02-16T15:41:32.916Z,10.54
2023-02-16T15:43:33.924Z,10.5
2023-02-16T15:47:36.347Z,10.43
2023-02-16T15:49:38.270Z,10.38
2023-02-16T15:51:39.467Z,10.39
2023-02-16T15:53:40.793Z,10.38
2023-02-16T15:55:42.313Z,10.37
2023-02-16T15:57:43.706Z,10.38
2023-02-16T15:59:45.397Z,10.4
2023-02-16T16:01:46.463Z,10.41
2023-02-16T16:03:47.695Z,10.4
2023-02-16T16:05:49.067Z,10.4
2023-02-16T16:07:50.829Z,10.44
2023-02-16T16:09:51.896Z,10.49
2023-02-16T16:11:53.628Z,10.48
2023-02-16T16:13:54.888Z,10.51
2023-02-16T16:15:55.918Z,10.49
2023-02-16T16:17:57.587Z,10.5
2023-02-16T16:19:58.736Z,10.45
2023-02-16T16:21:59.803Z,10.41
2023-02-16T16:24:00.773Z,10.33
2023-02-16T16:26:01.718Z,10.25
2023-02-16T16:28:02.718Z,10.16
2023-02-16T16:30:04.286Z,10.14
2023-02-16T16:32:05.971Z,10.15
2023-02-16T16:34:07.407Z,10.06
2023-02-16T16:36:08.553Z,10.01
2023-02-16T16:38:09.612Z,10
2023-02-16T16:40:10.997Z,9.97
2023-02-16T16:42:12.645Z,9.98
2023-02-16T16:44:14.500Z,9.94
2023-02-16T16:46:16.189Z,10.18
2023-02-16T16:48:17.558Z,10.16
2023-02-16T16:50:18.540Z,10.08
2023-02-16T16:52:20.360Z,10.03
2023-02-16T16:54:21.453Z,9.9
2023-02-16T16:56:22.477Z,9.82
2023-02-16T16:58:23.426Z,9.78
2023-02-16T17:00:24.556Z,9.74
2023-02-16T17:02:25.726Z,9.84
2023-02-16T17:04:27.206Z,9.81
2023-02-16T17:06:28.119Z,9.78
2023-02-16T17:08:38.992Z,9.77
2023-02-16T17:10:31.314Z,9.79
2023-02-16T17:12:32.527Z,9.76
2023-02-16T17:14:34.098Z,9.71
2023-02-16T17:16:35.350Z,9.63
2023-02-16T17:18:37.073Z,9.53
2023-02-16T17:20:38.172Z,9.55
2023-02-16T17:22:39.534Z,9.73
2023-02-16T17:24:40.863Z,9.69
2023-02-16T17:28:43.081Z,9.58
2023-02-16T17:30:44.325Z,9.62
2023-02-16T17:32:45.402Z,9.73
2023-02-16T17:34:46.366Z,9.82
2023-02-16T17:36:47.540Z,9.89
2023-02-16T17:38:48.764Z,9.88
2023-02-16T17:40:50.394Z,9.81
2023-02-16T17:42:52.196Z,9.77
2023-02-16T17:44:53.705Z,10.11
2023-02-16T17:46:55.307Z,10.29
2023-02-16T17:48:56.563Z,10.31
2023-02-16T17:50:57.737Z,10.25
2023-02-16T17:52:59.277Z,10.21
2023-02-16T17:55:00.611Z,10.16
2023-02-16T17:57:01.576Z,10.15
2023-02-16T17:59:03.041Z,10.07
2023-02-16T18:01:04.273Z,9.96
2023-02-16T18:03:05.475Z,10.01
2023-02-16T18:05:06.503Z,10.02
2023-02-16T18:07:07.587Z,10.17
2023-02-16T18:09:09.319Z,10.11
2023-02-16T18:11:10.742Z,10.2
2023-02-16T18:13:12.299Z,10.13
2023-02-16T18:15:13.300Z,10.11
2023-02-16T18:17:14.624Z,10.2
2023-02-16T18:19:16.318Z,10.21
2023-02-16T18:21:17.579Z,10.18
2023-02-16T18:23:18.762Z,10.21
2023-02-16T18:25:20.100Z,10.13
2023-02-16T18:27:21.375Z,10.16
2023-02-16T18:29:22.755Z,10.2
2023-02-16T18:31:23.978Z,10.21
2023-02-16T18:33:25.816Z,10.23
2023-02-16T18:35:27.029Z,10.16
2023-02-16T18:37:28.680Z,10.29
2023-02-16T18:39:29.957Z,10.3
2023-02-16T18:41:31.345Z,10.33
2023-02-16T18:43:32.641Z,10.33
2023-02-16T18:45:34.132Z,10.37
2023-02-16T18:47:35.568Z,10.44
2023-02-16T18:49:36.831Z,10.37
2023-02-16T18:51:38.661Z,10.46
2023-02-16T18:53:39.616Z,10.5
2023-02-16T18:55:41.323Z,10.47
2023-02-16T18:57:42.760Z,10.46
2023-02-16T18:59:43.900Z,10.56
2023-02-16T19:01:45.189Z,10.54
2023-02-16T19:03:46.726Z,10.55
2023-02-16T19:05:47.908Z,10.58
2023-02-16T19:07:49.040Z,10.52
2023-02-16T19:09:50.159Z,10.51
2023-02-16T19:11:51.529Z,10.51
2023-02-16T19:13:52.711Z,10.52
2023-02-16T19:15:54.075Z,10.51
2023-02-16T19:17:55.367Z,10.52
2023-02-16T19:19:56.404Z,10.47
2023-02-16T19:21:57.514Z,10.37
2023-02-16T19:23:58.437Z,10.28
2023-02-16T19:25:59.548Z,10.24
2023-02-16T19:28:00.743Z,10.38
2023-02-16T19:30:02.257Z,10.36
2023-02-16T19:32:03.188Z,10.37
2023-02-16T19:34:04.470Z,10.44
2023-02-16T19:36:06.006Z,10.58
2023-02-16T19:38:07.276Z,10.66
2023-02-16T19:40:08.621Z,10.67
2023-02-16T19:42:10.006Z,10.64
2023-02-16T19:44:12.958Z,10.61
2023-02-16T19:46:12.554Z,10.55
2023-02-16T19:48:13.937Z,10.46
2023-02-16T19:50:15.832Z,10.54
2023-02-16T19:52:17.570Z,10.56
2023-02-16T19:54:18.471Z,10.52
2023-02-16T19:56:20.076Z,10.57
2023-02-16T19:58:21.597Z,10.56
2023-02-16T20:00:22.719Z,10.5
2023-02-16T20:02:24.319Z,10.42
2023-02-16T20:04:25.534Z,10.54
2023-02-16T20:06:27.263Z,10.55
2023-02-16T20:08:28.812Z,10.52
2023-02-16T20:10:30.088Z,10.47
2023-02-16T20:12:31.171Z,10.48
2023-02-16T20:14:32.794Z,10.42
2023-02-16T20:16:34.560Z,10.43
2023-02-16T20:18:35.930Z,10.39
2023-02-16T20:20:36.961Z,10.39
2023-02-16T20:22:38.505Z,10.46
2023-02-16T20:24:40.243Z,10.53
2023-02-16T20:26:41.949Z,10.36
2023-02-16T20:28:43.282Z,10.4
2023-02-16T20:30:44.866Z,10.43
2023-02-16T20:32:47.087Z,10.44
2023-02-16T20:34:47.406Z,10.45
2023-02-16T20:36:48.472Z,10.43
2023-02-16T20:38:49.908Z,10.39
2023-02-16T20:40:51.595Z,10.28
2023-02-16T20:42:53.402Z,10.29
2023-02-16T20:44:55.131Z,10.31
2023-02-16T20:46:56.589Z,10.48
2023-02-16T20:48:57.741Z,10.52
2023-02-16T20:50:59.090Z,10.42
2023-02-16T20:53:00.528Z,10.36
2023-02-16T20:55:01.613Z,10.34
2023-02-16T20:57:02.943Z,10.32
2023-02-16T20:59:04.736Z,10.25
2023-02-16T21:01:06.018Z,10.24
2023-02-16T21:03:07.338Z,10.25
2023-02-16T21:05:08.369Z,10.28
2023-02-16T21:07:09.288Z,10.32
2023-02-16T21:09:11.048Z,10.28
2023-02-16T21:11:12.352Z,10.23
2023-02-16T21:13:13.984Z,10.18
2023-02-16T21:15:14.974Z,10.17
2023-02-16T21:17:16.300Z,10.16
2023-02-16T21:19:27.040Z,10.11
2023-02-16T21:22:12.012Z,10.17
2023-02-16T21:24:12.926Z,10.15
2023-02-16T21:26:14.584Z,10.17
2023-02-16T21:28:15.966Z,10.1
2023-02-16T21:30:16.971Z,10.21
2023-02-16T21:32:17.986Z,10.18
2023-02-16T21:34:19.611Z,10.08
2023-02-16T21:36:21.368Z,10.06
2023-02-16T21:38:23.057Z,10.2
2023-02-16T21:40:24.247Z,10.15
2023-02-16T21:42:26.054Z,10.17
2023-02-16T21:44:27.222Z,10.18
2023-02-16T21:46:28.873Z,10.18
2023-02-16T21:48:30.405Z,10.2
2023-02-16T21:50:31.463Z,10.21
2023-02-16T21:52:33.012Z,10.18
2023-02-16T21:54:34.705Z,10.18
2023-02-16T21:56:35.990Z,10.14
2023-02-16T21:58:37.362Z,10.11
2023-02-16T22:00:38.315Z,10.12
2023-02-16T22:02:39.705Z,10.06
2023-02-16T22:04:41.239Z,10.02
2023-02-16T22:06:43.047Z,10.01
2023-02-16T22:08:44.262Z,10.04
2023-02-16T22:10:45.533Z,10.03
2023-02-16T22:12:46.711Z,9.95
2023-02-16T22:14:48.538Z,10.11
2023-02-16T22:16:50.474Z,10.06
2023-02-16T22:18:51.886Z,10.04
2023-02-16T22:20:53.737Z,9.9
2023-02-16T22:22:54.841Z,9.82
2023-02-16T22:24:55.960Z,9.81
2023-02-16T22:26:57.168Z,9.75
2023-02-16T22:28:58.840Z,9.79
2023-02-16T22:31:00.697Z,9.78
2023-02-16T22:33:01.797Z,9.75
2023-02-16T22:35:03.255Z,9.81
2023-02-16T22:37:04.333Z,9.82
2023-02-16T22:39:06.046Z,9.85
2023-02-16T22:41:07.513Z,9.82
2023-02-16T22:43:09.037Z,9.73
2023-02-16T22:45:10.394Z,9.75
2023-02-16T22:47:12.026Z,9.77
2023-02-16T22:49:13.601Z,9.8
2023-02-16T22:51:15.065Z,9.85
2023-02-16T22:53:16.847Z,9.9
2023-02-16T22:55:18.216Z,9.87
2023-02-16T22:57:19.202Z,9.85
2023-02-16T22:59:20.422Z,9.8
2023-02-16T23:01:21.606Z,9.86
2023-02-16T23:03:22.877Z,9.82
2023-02-16T23:05:24.745Z,9.87
2023-02-16T23:07:25.996Z,9.85
2023-02-16T23:09:26.978Z,9.84
2023-02-16T23:11:28.513Z,9.9
2023-02-16T23:13:29.841Z,9.83
2023-02-16T23:15:31.352Z,9.79
2023-02-16T23:17:32.571Z,9.76
2023-02-16T23:19:33.764Z,9.78
2023-02-16T23:21:35.684Z,9.76
2023-02-16T23:25:37.928Z,9.75
2023-02-16T23:27:39.217Z,9.71
2023-02-16T23:29:40.642Z,9.77
2023-02-16T23:31:42.290Z,9.8
2023-02-16T23:33:43.619Z,9.77
2023-02-16T23:35:45.205Z,9.75
2023-02-16T23:37:47.028Z,9.78
2023-02-16T23:39:48.835Z,9.73
2023-02-16T23:41:50.577Z,9.74
2023-02-16T23:43:51.548Z,9.74
2023-02-16T23:45:53.118Z,9.72
2023-02-16T23:47:54.402Z,9.74
2023-02-16T23:49:55.467Z,9.69
2023-02-16T23:51:56.773Z,9.75
2023-02-16T23:53:58.018Z,9.73
2023-02-16T23:55:59.256Z,9.82
2023-02-16T23:58:00.662Z,9.75
